Seven Mile, Ohio
Current Conditions -  °F | °C
As of 1:55 AM on Monday 24 Nov 2014 (Local Time) from KMWO Reporting Station
Overcast Overcast  
Wind Chill: 60°   Ceiling: 1600
Heat Index: 60°   Visibility: 10mi
Dew Point: 55°   Wind: 23mph
Humidity: 83%   Direction: 220°SW
Pressure: 29.29"   Gusts: 30mph
Location:  39.48°N, 84.55°W
Report Text: KMWO 240655Z AUTO 22020G26KT 10SM BKN016 OVC022 15/13 A2929 RMK AO2 T01530125
Loading
Personal Weather Stations






























Interactive Weather Map New forecast layout! Learn more

10-Day Weather Forecast

Advertisements
Track Severe Weather on mobile